createdAt,value
2022-08-24T00:01:01.372Z,1.40
2022-08-24T00:03:30.778Z,1.30
2022-08-24T00:06:02.272Z,1.10
2022-08-24T00:08:28.957Z,1.40
2022-08-24T00:10:55.520Z,1.38
2022-08-24T00:13:22.063Z,1.40
2022-08-24T00:15:49.764Z,1.30
2022-08-24T00:18:16.407Z,1.52
2022-08-24T00:20:45.243Z,1.00
2022-08-24T00:23:12.419Z,1.42
2022-08-24T00:25:38.925Z,1.42
2022-08-24T00:28:06.178Z,1.42
2022-08-24T00:30:34.176Z,1.73
2022-08-24T00:33:02.119Z,1.55
2022-08-24T00:35:28.882Z,1.40
2022-08-24T00:37:57.078Z,1.50
2022-08-24T00:40:30.635Z,1.48
2022-08-24T00:43:03.239Z,1.20
2022-08-24T00:45:33.903Z,1.58
2022-08-24T00:48:06.317Z,1.60
2022-08-24T00:50:40.520Z,1.50
2022-08-24T00:53:16.163Z,1.83
2022-08-24T00:55:48.157Z,1.50
2022-08-24T00:58:23.680Z,1.42
2022-08-24T01:00:56.724Z,1.67
2022-08-24T01:03:24.182Z,1.27
2022-08-24T01:05:50.747Z,1.58
2022-08-24T01:08:17.245Z,1.42
2022-08-24T01:10:49.163Z,1.17
2022-08-24T01:13:16.861Z,1.50
2022-08-24T01:15:47.884Z,1.58
2022-08-24T01:18:39.178Z,1.63
2022-08-24T01:21:14.668Z,1.65
2022-08-24T01:23:48.555Z,1.50
2022-08-24T01:26:21.033Z,1.65
2022-08-24T01:28:51.044Z,1.65
2022-08-24T01:31:20.807Z,1.50
2022-08-24T01:33:50.417Z,1.60
2022-08-24T01:36:38.797Z,1.42
2022-08-24T01:39:13.731Z,1.83
2022-08-24T01:41:40.602Z,1.67
2022-08-24T01:44:07.757Z,1.60
2022-08-24T01:46:34.855Z,1.70
2022-08-24T01:49:02.023Z,1.90
2022-08-24T01:51:33.126Z,1.70
2022-08-24T01:54:02.817Z,1.92
2022-08-24T01:56:31.026Z,1.50
2022-08-24T01:59:00.197Z,1.65
2022-08-24T02:01:29.107Z,1.75
2022-08-24T02:03:58.454Z,1.65
2022-08-24T02:06:27.197Z,1.63
2022-08-24T02:08:53.913Z,1.55
2022-08-24T02:11:20.410Z,1.67
2022-08-24T02:13:47.414Z,1.42
2022-08-24T02:16:14.867Z,1.45
2022-08-24T02:18:42.210Z,1.90
2022-08-24T02:21:09.881Z,1.63
2022-08-24T02:23:37.871Z,1.80
2022-08-24T02:26:06.154Z,1.63
2022-08-24T02:28:33.143Z,1.58
2022-08-24T02:31:01.119Z,1.55
2022-08-24T02:33:29.959Z,1.75
2022-08-24T02:35:57.068Z,1.60
2022-08-24T02:38:23.816Z,1.85
2022-08-24T02:40:50.433Z,2.20
2022-08-24T02:43:17.566Z,1.73
2022-08-24T02:45:50.199Z,1.95
2022-08-24T02:48:18.760Z,1.65
2022-08-24T02:50:49.021Z,1.70
2022-08-24T02:53:17.217Z,1.90
2022-08-24T02:55:44.757Z,1.70
2022-08-24T02:58:16.438Z,1.80
2022-08-24T03:00:47.302Z,2.17
2022-08-24T03:03:16.309Z,1.98
2022-08-24T03:05:42.939Z,1.77
2022-08-24T03:08:09.534Z,2.08
2022-08-24T03:10:36.265Z,1.75
2022-08-24T03:13:04.594Z,1.88
2022-08-24T03:15:31.363Z,2.00
2022-08-24T03:17:57.957Z,2.10
2022-08-24T03:20:25.715Z,1.58
2022-08-24T03:22:52.952Z,2.20
2022-08-24T03:25:24.445Z,2.00
2022-08-24T03:27:52.036Z,1.70
2022-08-24T03:30:18.815Z,1.90
2022-08-24T03:32:47.319Z,1.65
2022-08-24T03:35:15.322Z,1.73
2022-08-24T03:37:42.366Z,1.90
2022-08-24T03:40:22.344Z,2.03
2022-08-24T03:42:53.495Z,1.73
2022-08-24T03:45:21.526Z,2.10
2022-08-24T03:47:48.372Z,1.92
2022-08-24T03:50:14.940Z,1.52
2022-08-24T03:52:41.903Z,2.15
2022-08-24T03:55:10.080Z,2.10
2022-08-24T03:57:36.836Z,2.50
2022-08-24T04:00:10.770Z,2.25
2022-08-24T04:02:44.379Z,2.08
2022-08-24T04:05:15.829Z,2.10
2022-08-24T04:07:42.395Z,2.22
2022-08-24T04:10:09.343Z,1.95
2022-08-24T04:12:35.839Z,1.90
2022-08-24T04:15:03.349Z,2.42
2022-08-24T04:17:30.399Z,2.38
2022-08-24T04:19:58.260Z,2.22
2022-08-24T04:22:30.297Z,2.63
2022-08-24T04:24:56.958Z,2.40
2022-08-24T04:27:23.910Z,1.92
2022-08-24T04:29:51.140Z,2.05
2022-08-24T04:32:18.548Z,1.90
2022-08-24T04:34:45.771Z,2.47
2022-08-24T04:37:14.628Z,2.15
2022-08-24T04:39:42.160Z,2.30
2022-08-24T04:42:22.452Z,1.98
2022-08-24T04:44:50.471Z,2.28
2022-08-24T04:47:19.802Z,2.50
2022-08-24T04:49:47.650Z,2.15
2022-08-24T04:52:14.513Z,2.05
2022-08-24T04:54:42.342Z,2.38
2022-08-24T04:57:14.680Z,2.25
2022-08-24T04:59:46.706Z,2.00
2022-08-24T05:02:13.284Z,1.88
2022-08-24T05:04:40.049Z,2.17
2022-08-24T05:07:07.403Z,1.63
2022-08-24T05:09:34.197Z,2.10
2022-08-24T05:12:02.543Z,1.75
2022-08-24T05:14:34.051Z,2.30
2022-08-24T05:17:00.600Z,2.10
2022-08-24T05:19:30.532Z,2.22
2022-08-24T05:21:57.061Z,2.67
2022-08-24T05:24:23.700Z,2.20
2022-08-24T05:26:52.315Z,2.00
2022-08-24T05:29:20.482Z,2.17
2022-08-24T05:31:49.463Z,2.40
2022-08-24T05:34:16.563Z,2.33
2022-08-24T05:36:43.922Z,2.80
2022-08-24T05:39:26.880Z,2.50
2022-08-24T05:41:55.466Z,2.63
2022-08-24T05:44:30.666Z,2.25
2022-08-24T05:47:01.060Z,2.40
2022-08-24T05:49:28.000Z,2.47
2022-08-24T05:51:55.109Z,2.50
2022-08-24T05:54:23.182Z,2.25
2022-08-24T05:57:04.730Z,2.35
2022-08-24T05:59:37.799Z,2.60
2022-08-24T06:02:10.015Z,2.42
2022-08-24T06:04:38.170Z,2.88
2022-08-24T06:07:10.114Z,2.50
2022-08-24T06:09:39.495Z,2.33
2022-08-24T06:12:07.086Z,2.65
2022-08-24T06:14:34.592Z,2.75
2022-08-24T06:17:05.915Z,2.00
2022-08-24T06:19:33.301Z,2.60
2022-08-24T06:22:01.407Z,2.20
2022-08-24T06:24:47.980Z,2.20
2022-08-24T06:27:23.268Z,2.25
2022-08-24T06:29:57.122Z,2.28
2022-08-24T06:32:43.939Z,2.80
2022-08-24T06:35:16.675Z,2.30
2022-08-24T06:37:43.332Z,2.22
2022-08-24T06:40:10.994Z,1.98
2022-08-24T06:42:38.089Z,2.28
2022-08-24T06:45:16.401Z,2.00
2022-08-24T06:47:44.315Z,2.30
2022-08-24T06:50:11.443Z,1.90
2022-08-24T06:52:39.572Z,2.80
2022-08-24T06:55:07.034Z,2.30
2022-08-24T06:57:33.685Z,2.25
2022-08-24T07:00:00.168Z,2.33
2022-08-24T07:02:26.957Z,2.53
2022-08-24T07:04:53.668Z,2.28
2022-08-24T07:07:39.064Z,2.45
2022-08-24T07:10:09.266Z,2.25
2022-08-24T07:12:36.736Z,2.22
2022-08-24T07:15:04.409Z,2.10
2022-08-24T07:17:38.302Z,2.17
2022-08-24T07:20:06.198Z,2.00
2022-08-24T07:22:55.543Z,2.00
2022-08-24T07:25:22.378Z,2.63
2022-08-24T07:27:52.260Z,2.28
2022-08-24T07:30:27.054Z,1.98
2022-08-24T07:32:57.265Z,2.30
2022-08-24T07:35:26.735Z,2.08
2022-08-24T07:37:55.360Z,2.50
2022-08-24T07:40:23.673Z,2.22
2022-08-24T07:42:52.362Z,2.28
2022-08-24T07:45:19.834Z,2.78
2022-08-24T07:50:37.336Z,2.30
2022-08-24T07:53:05.213Z,2.33
2022-08-24T07:55:33.145Z,2.35
2022-08-24T07:58:00.313Z,2.13
2022-08-24T08:00:27.028Z,2.03
2022-08-24T08:02:59.186Z,1.90
2022-08-24T08:05:25.825Z,2.00
2022-08-24T08:07:53.816Z,2.35
2022-08-24T08:10:21.891Z,1.98
2022-08-24T08:12:48.771Z,1.92
2022-08-24T08:15:15.258Z,2.33
2022-08-24T08:17:56.050Z,2.20
2022-08-24T08:20:23.491Z,2.15
2022-08-24T08:23:09.303Z,2.30
2022-08-24T08:25:54.618Z,2.25
2022-08-24T08:28:35.533Z,2.42
2022-08-24T08:31:04.114Z,1.90
2022-08-24T08:33:33.219Z,1.90
2022-08-24T08:36:04.825Z,2.22
2022-08-24T08:38:32.436Z,1.73
2022-08-24T08:41:01.894Z,2.00
2022-08-24T08:43:39.580Z,2.30
2022-08-24T08:46:24.214Z,2.17
2022-08-24T08:49:59.030Z,1.65
2022-08-24T08:52:34.928Z,1.75
2022-08-24T08:55:21.893Z,1.98
2022-08-24T08:58:06.507Z,2.10
2022-08-24T09:01:07.606Z,1.85
2022-08-24T09:03:52.599Z,1.80
2022-08-24T09:07:08.445Z,1.75
2022-08-24T09:09:52.563Z,1.80
2022-08-24T09:12:43.557Z,1.70
2022-08-24T09:15:45.899Z,1.85
2022-08-24T09:18:49.665Z,1.77
2022-08-24T09:21:38.162Z,1.70
2022-08-24T09:24:39.958Z,1.67
2022-08-24T09:27:43.296Z,1.73
2022-08-24T09:30:23.467Z,1.42
2022-08-24T09:33:13.690Z,1.70
2022-08-24T09:35:57.369Z,1.75
2022-08-24T09:38:42.699Z,1.35
2022-08-24T09:41:28.187Z,1.30
2022-08-24T09:44:27.776Z,1.50
2022-08-24T09:47:20.648Z,0.95
2022-08-24T09:50:05.894Z,1.05
2022-08-24T09:52:58.103Z,1.23
2022-08-24T09:55:52.713Z,1.38
2022-08-24T09:58:57.540Z,1.23
2022-08-24T10:01:41.745Z,1.35
2022-08-24T10:04:34.676Z,1.60
2022-08-24T10:07:18.230Z,1.63
2022-08-24T10:09:50.509Z,1.58
2022-08-24T10:12:46.849Z,1.70
2022-08-24T10:15:28.091Z,1.58
2022-08-24T10:18:09.884Z,1.63
2022-08-24T10:21:04.464Z,1.50
2022-08-24T10:23:55.126Z,1.50
2022-08-24T10:26:59.301Z,1.60
2022-08-24T10:29:58.882Z,1.58
2022-08-24T10:32:41.094Z,1.27
2022-08-24T10:35:28.594Z,1.48
2022-08-24T10:38:53.061Z,1.83
2022-08-24T10:41:19.562Z,1.65
2022-08-24T10:44:24.238Z,1.35
2022-08-24T10:46:59.574Z,1.42
2022-08-24T10:49:37.332Z,1.30
2022-08-24T10:52:22.141Z,1.42
2022-08-24T10:54:48.837Z,1.25
2022-08-24T10:57:28.495Z,1.35
2022-08-24T11:00:18.286Z,1.23
2022-08-24T11:02:49.824Z,2.20
2022-08-24T11:05:38.281Z,1.40
2022-08-24T11:08:06.956Z,1.20
2022-08-24T11:10:37.413Z,1.60
2022-08-24T11:13:24.778Z,1.40
2022-08-24T11:15:54.484Z,1.45
2022-08-24T11:18:22.499Z,1.45
2022-08-24T11:20:52.922Z,1.77
2022-08-24T11:23:29.609Z,1.60
2022-08-24T11:26:03.988Z,1.80
2022-08-24T11:28:39.041Z,1.23
2022-08-24T11:31:11.068Z,1.88
2022-08-24T11:33:50.724Z,1.50
2022-08-24T11:36:21.206Z,1.83
2022-08-24T11:38:49.523Z,1.33
2022-08-24T11:41:33.027Z,1.50
2022-08-24T11:44:16.700Z,1.50
2022-08-24T11:46:57.477Z,1.50
2022-08-24T11:49:48.527Z,1.35
2022-08-24T11:52:51.714Z,1.48
2022-08-24T11:55:57.589Z,1.40
2022-08-24T11:58:45.212Z,1.45
2022-08-24T12:01:32.904Z,1.10
2022-08-24T12:04:26.038Z,1.80
2022-08-24T12:07:17.000Z,1.55
2022-08-24T12:10:28.552Z,1.42
2022-08-24T12:13:06.535Z,1.60
2022-08-24T12:15:52.133Z,1.70
2022-08-24T12:18:29.518Z,1.90
2022-08-24T12:20:57.882Z,1.80
2022-08-24T12:23:27.256Z,1.40
2022-08-24T12:26:01.983Z,1.50
2022-08-24T12:28:37.419Z,1.75
2022-08-24T12:31:12.913Z,1.83
2022-08-24T12:33:46.334Z,1.60
2022-08-24T12:36:36.417Z,1.63
2022-08-24T12:39:13.592Z,1.33
2022-08-24T12:41:58.012Z,1.73
2022-08-24T12:44:31.151Z,1.40
2022-08-24T12:46:57.882Z,1.75
2022-08-24T12:49:33.715Z,1.85
2022-08-24T12:52:03.411Z,1.77
2022-08-24T12:54:56.346Z,1.73
2022-08-24T12:57:39.635Z,1.60
2022-08-24T13:00:37.040Z,1.40
2022-08-24T13:03:08.095Z,2.00
2022-08-24T13:05:48.471Z,2.03
2022-08-24T13:08:32.118Z,1.30
2022-08-24T13:11:07.124Z,1.65
2022-08-24T13:13:47.910Z,1.40
2022-08-24T13:16:51.743Z,1.40
2022-08-24T13:19:40.239Z,1.40
2022-08-24T13:22:09.953Z,1.65
2022-08-24T13:24:37.624Z,1.38
2022-08-24T13:27:13.300Z,1.38
2022-08-24T13:29:49.217Z,1.30
2022-08-24T13:32:22.586Z,1.55
2022-08-24T13:34:51.343Z,1.20
2022-08-24T13:37:23.524Z,1.20
2022-08-24T13:40:09.889Z,1.10
2022-08-24T13:43:03.011Z,1.63
2022-08-24T13:45:46.663Z,1.40
2022-08-24T13:48:18.340Z,1.30
2022-08-24T13:50:56.624Z,1.50
2022-08-24T13:54:18.838Z,1.58
2022-08-24T13:57:06.171Z,1.25
2022-08-24T13:59:59.116Z,1.38
2022-08-24T14:02:40.160Z,1.42
2022-08-24T14:05:28.670Z,1.60
2022-08-24T14:08:44.176Z,1.15
2022-08-24T14:11:32.659Z,1.30
2022-08-24T14:14:21.166Z,1.08
2022-08-24T14:17:40.431Z,1.35
2022-08-24T14:20:41.181Z,1.42
2022-08-24T14:23:37.009Z,1.60
2022-08-24T14:26:34.573Z,1.60
2022-08-24T14:29:19.505Z,1.40
2022-08-24T14:31:58.604Z,1.30
2022-08-24T14:34:42.011Z,1.67
2022-08-24T14:37:14.404Z,1.17
2022-08-24T14:40:23.477Z,1.38
2022-08-24T14:42:56.518Z,1.75
2022-08-24T14:45:22.993Z,1.30
2022-08-24T14:48:11.400Z,1.20
2022-08-24T14:50:43.326Z,1.25
2022-08-24T14:53:59.567Z,1.50
2022-08-24T14:56:50.644Z,1.45
2022-08-24T14:59:42.265Z,1.35
2022-08-24T15:02:46.396Z,1.50
2022-08-24T15:05:25.436Z,1.70
2022-08-24T15:08:26.753Z,1.60
2022-08-24T15:11:02.396Z,1.88
2022-08-24T15:13:46.938Z,1.58
2022-08-24T15:16:14.752Z,1.70
2022-08-24T15:19:02.068Z,1.60
2022-08-24T15:21:49.590Z,1.58
2022-08-24T15:24:29.006Z,1.65
2022-08-24T15:27:34.549Z,1.60
2022-08-24T15:30:05.052Z,1.70
2022-08-24T15:32:51.775Z,1.60
2022-08-24T15:35:31.241Z,1.45
2022-08-24T15:37:58.133Z,1.55
2022-08-24T15:40:29.795Z,1.40
2022-08-24T15:43:04.153Z,1.38
2022-08-24T15:45:32.618Z,1.52
2022-08-24T15:48:01.566Z,1.55
2022-08-24T15:50:33.480Z,1.20
2022-08-24T15:53:08.319Z,1.40
2022-08-24T15:55:38.718Z,1.80
2022-08-24T15:58:20.775Z,1.15
2022-08-24T16:01:06.988Z,0.95
2022-08-24T16:03:46.979Z,1.20
2022-08-24T16:06:25.955Z,1.35
2022-08-24T16:09:13.023Z,1.23
2022-08-24T16:11:48.938Z,1.33
2022-08-24T16:14:31.188Z,1.02
2022-08-24T16:16:58.909Z,1.08
2022-08-24T16:19:33.357Z,1.15
2022-08-24T16:22:09.025Z,0.98
2022-08-24T16:24:38.745Z,1.23
2022-08-24T16:27:10.515Z,1.13
2022-08-24T16:29:37.201Z,1.02
2022-08-24T16:32:22.081Z,1.10
2022-08-24T16:35:09.726Z,1.10
2022-08-24T16:37:37.371Z,0.93
2022-08-24T16:40:05.281Z,1.33
2022-08-24T16:42:32.949Z,1.10
2022-08-24T16:44:59.584Z,1.10
2022-08-24T16:47:28.148Z,1.58
2022-08-24T16:49:55.203Z,0.80
2022-08-24T16:52:21.983Z,0.90
2022-08-24T16:54:49.005Z,0.70
2022-08-24T16:57:18.798Z,0.90
2022-08-24T16:59:48.209Z,0.88
2022-08-24T17:02:17.020Z,0.90
2022-08-24T17:04:44.203Z,1.10
2022-08-24T17:07:13.754Z,1.00
2022-08-24T17:09:43.168Z,1.20
2022-08-24T17:12:10.061Z,1.45
2022-08-24T17:14:39.372Z,1.20
2022-08-24T17:17:07.788Z,1.13
2022-08-24T17:19:35.555Z,1.50
2022-08-24T17:22:03.673Z,1.30
2022-08-24T17:24:30.240Z,1.50
2022-08-24T17:26:56.883Z,1.50
2022-08-24T17:29:24.899Z,1.38
2022-08-24T17:31:51.847Z,1.48
2022-08-24T17:34:21.239Z,1.60
2022-08-24T17:36:49.598Z,1.73
2022-08-24T17:39:17.936Z,1.83
2022-08-24T17:41:44.447Z,1.80
2022-08-24T17:44:25.074Z,1.80
2022-08-24T17:46:54.163Z,1.67
2022-08-24T17:49:21.205Z,1.60
2022-08-24T17:51:49.232Z,1.75
2022-08-24T17:54:17.237Z,2.00
2022-08-24T17:56:46.480Z,2.05
2022-08-24T17:59:20.393Z,1.63
2022-08-24T18:01:48.073Z,2.28
2022-08-24T18:04:14.995Z,1.95
2022-08-24T18:06:41.839Z,1.92
2022-08-24T18:09:26.505Z,2.28
2022-08-24T18:11:53.033Z,2.20
2022-08-24T18:14:19.689Z,2.00
2022-08-24T18:16:50.139Z,2.47
2022-08-24T18:19:22.876Z,2.00
2022-08-24T18:21:51.713Z,2.10
2022-08-24T18:24:18.410Z,2.60
2022-08-24T18:26:48.024Z,2.50
2022-08-24T18:29:18.801Z,2.30
2022-08-24T18:31:48.217Z,2.85
2022-08-24T18:34:21.753Z,2.28
2022-08-24T18:36:48.759Z,2.65
2022-08-24T18:39:16.167Z,2.53
2022-08-24T18:41:49.514Z,2.45
2022-08-24T18:44:21.721Z,2.40
2022-08-24T18:46:49.058Z,2.58
2022-08-24T18:49:17.805Z,2.20
2022-08-24T18:51:48.022Z,2.30
2022-08-24T18:54:21.215Z,2.75
2022-08-24T18:56:48.775Z,2.10
2022-08-24T18:59:18.495Z,2.67
2022-08-24T19:02:05.781Z,2.30
2022-08-24T19:04:33.178Z,2.00
2022-08-24T19:07:00.749Z,2.00
2022-08-24T19:09:32.046Z,2.80
2022-08-24T19:12:00.751Z,2.22
2022-08-24T19:14:27.261Z,2.53
2022-08-24T19:16:53.816Z,2.58
2022-08-24T19:19:22.441Z,2.53
2022-08-24T19:21:49.410Z,2.88
2022-08-24T19:24:19.019Z,2.85
2022-08-24T19:26:45.527Z,2.20
2022-08-24T19:29:12.042Z,2.40
2022-08-24T19:31:38.780Z,2.70
2022-08-24T19:34:06.022Z,2.60
2022-08-24T19:36:32.907Z,2.67
2022-08-24T19:38:59.778Z,2.17
2022-08-24T19:41:36.464Z,2.70
2022-08-24T19:44:27.504Z,2.97
2022-08-24T19:46:55.541Z,2.78
2022-08-24T19:49:22.189Z,2.03
2022-08-24T19:51:49.620Z,2.80
2022-08-24T19:54:16.629Z,2.70
2022-08-24T19:56:43.160Z,2.90
2022-08-24T19:59:24.535Z,2.90
2022-08-24T20:01:51.413Z,2.55
2022-08-24T20:04:18.131Z,2.75
2022-08-24T20:06:45.779Z,2.60
2022-08-24T20:09:12.332Z,3.13
2022-08-24T20:11:39.563Z,2.65
2022-08-24T20:14:06.807Z,3.15
2022-08-24T20:16:42.095Z,2.58
2022-08-24T20:19:11.268Z,2.60
2022-08-24T20:21:38.580Z,2.72
2022-08-24T20:24:06.333Z,2.92
2022-08-24T20:26:39.244Z,2.90
2022-08-24T20:29:05.961Z,2.97
2022-08-24T20:31:32.659Z,2.70
2022-08-24T20:33:59.434Z,2.85
2022-08-24T20:36:36.326Z,3.42
2022-08-24T20:39:05.222Z,2.78
2022-08-24T20:41:32.175Z,2.85
2022-08-24T20:43:59.157Z,2.75
2022-08-24T20:46:27.003Z,2.53
2022-08-24T20:48:55.493Z,3.38
2022-08-24T20:51:24.349Z,2.83
2022-08-24T20:53:50.953Z,3.22
2022-08-24T20:56:31.225Z,3.08
2022-08-24T20:59:01.212Z,3.28
2022-08-24T21:01:27.784Z,2.95
2022-08-24T21:03:54.373Z,3.15
2022-08-24T21:06:21.333Z,3.30
2022-08-24T21:08:50.682Z,3.10
2022-08-24T21:11:17.994Z,3.08
2022-08-24T21:13:44.630Z,3.25
2022-08-24T21:16:13.663Z,3.70
2022-08-24T21:18:41.487Z,3.50
2022-08-24T21:21:08.566Z,3.70
2022-08-24T21:23:35.625Z,3.30
2022-08-24T21:26:06.511Z,3.33
2022-08-24T21:28:35.628Z,3.55
2022-08-24T21:31:06.183Z,3.40
2022-08-24T21:33:52.631Z,3.70
2022-08-24T21:36:23.533Z,3.08
2022-08-24T21:38:52.102Z,3.45
2022-08-24T21:41:21.698Z,3.25
2022-08-24T21:43:48.304Z,3.53
2022-08-24T21:46:15.178Z,3.10
2022-08-24T21:48:41.704Z,3.35
2022-08-24T21:51:08.395Z,3.42
2022-08-24T21:53:34.918Z,3.30
2022-08-24T21:56:02.353Z,3.63
2022-08-24T21:58:29.504Z,3.28
2022-08-24T22:00:59.601Z,3.28
2022-08-24T22:03:34.707Z,3.55
2022-08-24T22:06:10.941Z,3.72
2022-08-24T22:08:39.704Z,3.45
2022-08-24T22:11:06.380Z,3.58
2022-08-24T22:13:34.019Z,3.17
2022-08-24T22:16:00.631Z,3.20
2022-08-24T22:18:27.207Z,3.67
2022-08-24T22:20:53.687Z,3.03
2022-08-24T22:23:20.176Z,3.55
2022-08-24T22:25:53.530Z,3.33
2022-08-24T22:28:20.982Z,3.70
2022-08-24T22:30:48.924Z,3.47
2022-08-24T22:33:16.183Z,3.13
2022-08-24T22:35:44.953Z,3.58
2022-08-24T22:38:12.674Z,3.50
2022-08-24T22:40:39.508Z,3.35
2022-08-24T22:43:06.176Z,3.42
2022-08-24T22:45:32.704Z,3.63
2022-08-24T22:47:59.212Z,3.25
2022-08-24T22:50:25.764Z,3.63
2022-08-24T22:52:53.329Z,3.70
2022-08-24T22:55:20.324Z,3.50
2022-08-24T22:57:51.051Z,3.25
2022-08-24T23:00:18.463Z,3.97
2022-08-24T23:02:44.974Z,3.60
2022-08-24T23:05:11.555Z,3.63
2022-08-24T23:07:38.074Z,3.80
2022-08-24T23:10:06.195Z,4.20
2022-08-24T23:12:33.045Z,3.35
2022-08-24T23:15:00.100Z,4.07
2022-08-24T23:17:26.758Z,4.00
2022-08-24T23:20:06.466Z,3.63
2022-08-24T23:22:36.592Z,3.50
2022-08-24T23:25:05.740Z,3.80
2022-08-24T23:27:38.217Z,3.88
2022-08-24T23:30:07.828Z,3.60
2022-08-24T23:32:34.408Z,3.70
2022-08-24T23:35:01.075Z,3.85
2022-08-24T23:37:28.097Z,4.13
2022-08-24T23:39:54.636Z,3.90
2022-08-24T23:42:21.170Z,4.07
2022-08-24T23:44:47.635Z,3.90
2022-08-24T23:47:14.214Z,3.88
2022-08-24T23:49:41.707Z,4.57
2022-08-24T23:52:08.807Z,4.38
2022-08-24T23:54:52.799Z,4.18
2022-08-24T23:57:19.313Z,4.03
2022-08-24T23:59:45.800Z,4.07
